Utica, MS (39175)

6:58 AM CDT on September 02, 2015 (GMT -0500)
Tank | | Change Station
CLOSE
Current Station
Personal Weather Station
Location: Crystal Springs, MS
Elevation: 338 ft
Nearby Weather Stations

Elev 338 ft 32.09 °N, 90.43 °W | Updated 1 minute ago

Clear
Clear
70.9 °F
Feels Like 70.9 °F
N
0.0
Wind Variable Wind from South

Today
High -- | Low -- °F
--% Chance of Precip.
Yesterday
High -- | Low -- °F
Precip. -- in
6:38 AM 7:25 PM
Waning Gibbous, 81% visible
Pressure 30.07 in
Visibility 1.5 miles
Clouds Scattered Clouds 9000 ft
Dew Point 71 °F
Humidity 99%
Rainfall 0.00 in
Snow Depth Not available.
UV 0 out of 12
Pollen 9.30 out of 12
Air Quality Not available.
Flu Activity Not available.
METAR KJVW 021155Z AUTO 31004KT 1 1/2SM HZ SCT090 23/20 A3007 RMK AO2
Pressure 30.07 in
Visibility 1.5 miles
Clouds Scattered Clouds 9000 ft
Dew Point 71 °F
Humidity 99%
Rainfall 0.00 in
Snow Depth Not available.
UV 0 out of 12
Pollen 9.30 out of 12
Air Quality Not available.
Flu Activity Not available.
METAR KJVW 021155Z AUTO 31004KT 1 1/2SM HZ SCT090 23/20 A3007 RMK AO2

10-Day Weather Forecast

×

Almanac

Astronomy

Sep. 02, 2015 Rise Set
Actual Time
Civil Twilight
Nautical Twilight
Astronomical Twilight
Moon
Length of Visible Light
Length of Day
Tomorrow will be .
, % of the Moon is Illuminated

Today's Extremes

State Highs State Lows

Community

WunderPhotos

Upload Photos

1,851,736 photos uploaded!

WunderBlogs® & News

Nearby

Air Quality

  Air Quality AQ Index Pollutant
Not available.

Snow Depth

Station Depth Elevation

Earthquake Activity

City Distance Mag. Time & Date
Minimum magnitude displayed is 2.5.

Coastal Water Temperatures

Place Temperature

Stations

Nearby Weather Stations

Station Location Temp. Windchill Dew Point Humidity Wind Precip. Elev Updated Type